createdAt,value
2023-01-13T00:00:49.920Z,76.21
2023-01-13T00:10:58.734Z,75.85
2023-01-13T00:21:02.519Z,75.88
2023-01-13T00:31:10.155Z,75.92
2023-01-13T00:41:17.642Z,75.32
2023-01-13T00:51:22.006Z,74.45
2023-01-13T01:01:25.617Z,74.11
2023-01-13T01:11:30.863Z,75.04
2023-01-13T01:21:34.193Z,74.62
2023-01-13T01:31:36.684Z,75.31
2023-01-13T01:41:39.206Z,74.99
2023-01-13T01:52:13.961Z,75.40
2023-01-13T02:02:16.575Z,75.28
2023-01-13T02:12:34.799Z,75.50
2023-01-13T02:23:02.140Z,76.05
2023-01-13T02:33:49.135Z,77.33
2023-01-13T02:44:09.627Z,76.37
2023-01-13T02:54:21.524Z,76.47
2023-01-13T03:04:49.941Z,76.68
2023-01-13T03:15:04.591Z,78.12
2023-01-13T03:25:24.142Z,77.10
2023-01-13T03:35:32.013Z,76.80
2023-01-13T03:45:37.388Z,76.92
2023-01-13T03:55:47.702Z,77.37
2023-01-13T04:05:58.436Z,76.43
2023-01-13T04:16:01.186Z,76.80
2023-01-13T04:26:03.619Z,76.41
2023-01-13T04:36:06.370Z,76.64
2023-01-13T04:46:08.806Z,76.72
2023-01-13T04:56:11.237Z,76.86
2023-01-13T05:06:13.926Z,76.61
2023-01-13T05:16:34.901Z,76.51
2023-01-13T05:26:37.292Z,76.77
2023-01-13T05:36:39.811Z,76.94
2023-01-13T05:46:42.310Z,76.58
2023-01-13T05:56:44.703Z,75.68
2023-01-13T06:06:47.450Z,75.70
2023-01-13T06:16:50.145Z,76.09
2023-01-13T06:26:52.780Z,75.82
2023-01-13T06:36:56.255Z,76.37
2023-01-13T06:46:59.029Z,76.93
2023-01-13T06:57:02.317Z,76.73
2023-01-13T07:07:04.896Z,76.97
2023-01-13T07:17:07.323Z,76.34
2023-01-13T07:27:09.722Z,75.21
2023-01-13T07:37:12.122Z,74.74
2023-01-13T07:47:14.799Z,74.82
2023-01-13T07:57:17.236Z,74.73
2023-01-13T08:07:19.616Z,74.15
2023-01-13T08:17:22.038Z,73.28
2023-01-13T08:27:24.417Z,72.88
2023-01-13T08:37:26.824Z,72.63
2023-01-13T08:47:29.336Z,70.89
2023-01-13T08:57:31.764Z,70.11
2023-01-13T09:07:35.640Z,69.21
2023-01-13T09:17:38.129Z,69.23
2023-01-13T09:27:40.570Z,68.32
2023-01-13T09:37:43.087Z,67.17
2023-01-13T09:47:52.812Z,66.03
2023-01-13T09:57:55.194Z,64.84
2023-01-13T10:08:03.055Z,64.80
2023-01-13T10:18:24.331Z,64.64
2023-01-13T10:28:26.793Z,63.24
2023-01-13T10:38:36.070Z,64.01
2023-01-13T10:48:44.198Z,63.58
2023-01-13T10:58:47.317Z,65.59
2023-01-13T11:08:51.808Z,64.75
2023-01-13T11:19:02.784Z,64.37
2023-01-13T11:29:14.348Z,64.69
2023-01-13T11:39:41.512Z,65.67
2023-01-13T11:49:48.817Z,65.63
2023-01-13T12:00:16.785Z,67.04
2023-01-13T12:10:30.376Z,68.00
2023-01-13T12:20:51.066Z,67.74
2023-01-13T12:31:00.962Z,66.62
2023-01-13T12:42:01.690Z,67.40
2023-01-13T12:52:14.013Z,68.26
2023-01-13T13:02:25.929Z,69.35
2023-01-13T13:12:49.839Z,72.42
2023-01-13T13:22:52.466Z,73.67
2023-01-13T13:33:13.531Z,73.17
2023-01-13T13:43:35.013Z,69.88
2023-01-13T13:53:41.330Z,70.63
2023-01-13T14:03:43.821Z,71.41
2023-01-13T14:13:46.206Z,71.38
2023-01-13T14:23:53.970Z,71.88
2023-01-13T14:33:58.786Z,71.69
2023-01-13T14:44:08.249Z,72.59
2023-01-13T14:54:43.635Z,72.60
2023-01-13T15:04:46.095Z,71.93
2023-01-13T15:14:50.845Z,72.37
2023-01-13T15:24:53.241Z,73.51
2023-01-13T15:34:55.640Z,74.09
2023-01-13T15:45:16.914Z,75.19
2023-01-13T15:55:19.339Z,74.97
2023-01-13T16:05:21.771Z,74.94
2023-01-13T16:15:25.213Z,75.03
2023-01-13T16:25:27.897Z,77.36
2023-01-13T16:35:32.268Z,77.01
2023-01-13T16:45:35.174Z,76.44
2023-01-13T16:55:39.996Z,75.06
2023-01-13T17:05:44.351Z,73.08
2023-01-13T17:15:46.774Z,72.21
2023-01-13T17:25:49.167Z,71.81
2023-01-13T17:35:51.538Z,72.26
2023-01-13T17:45:54.059Z,71.42
2023-01-13T17:55:56.462Z,72.22
2023-01-13T18:06:22.888Z,72.15
2023-01-13T18:16:26.976Z,72.08
2023-01-13T18:26:51.554Z,72.10
2023-01-13T18:36:53.988Z,70.38
2023-01-13T18:46:56.352Z,69.87
2023-01-13T18:56:59.008Z,71.11
2023-01-13T19:07:01.557Z,71.12
2023-01-13T19:17:09.492Z,69.24
2023-01-13T19:27:16.906Z,68.93
2023-01-13T19:37:19.658Z,69.84
2023-01-13T19:47:22.071Z,69.51
2023-01-13T19:57:25.928Z,69.87
2023-01-13T20:07:30.565Z,70.83
2023-01-13T20:17:33.129Z,70.94
2023-01-13T20:27:35.802Z,71.34
2023-01-13T20:37:38.533Z,71.89
2023-01-13T20:47:41.117Z,72.69
2023-01-13T20:57:43.760Z,73.69
2023-01-13T21:07:46.221Z,75.25
2023-01-13T21:18:09.689Z,74.58
2023-01-13T21:28:13.687Z,74.75
2023-01-13T21:40:13.360Z,74.14
2023-01-13T21:50:24.904Z,71.60
2023-01-13T22:10:18.197Z,70.36
2023-01-13T22:20:21.607Z,70.98
2023-01-13T22:30:25.296Z,72.76
2023-01-13T22:40:27.755Z,73.17
2023-01-13T22:50:30.362Z,73.56
2023-01-13T23:00:33.536Z,74.07
2023-01-13T23:10:36.014Z,73.61
2023-01-13T23:20:38.385Z,76.18
2023-01-13T23:30:40.886Z,76.09
2023-01-13T23:40:45.583Z,76.80
2023-01-13T23:50:58.071Z,76.99
